createdAt,value
2018-02-20T00:00:03.800Z,26.75
2018-02-20T00:00:52.587Z,20.25
2018-02-20T00:01:41.673Z,21.20
2018-02-20T00:02:30.714Z,21.30
2018-02-20T00:03:19.840Z,18.27
2018-02-20T00:04:08.897Z,15.30
2018-02-20T00:04:57.966Z,17.77
2018-02-20T00:05:47.025Z,18.20
2018-02-20T00:06:36.087Z,19.08
2018-02-20T00:07:25.353Z,20.12
2018-02-20T00:08:14.403Z,17.12
2018-02-20T00:09:03.864Z,16.50
2018-02-20T00:09:52.894Z,20.08
2018-02-20T00:10:41.975Z,15.10
2018-02-20T00:11:31.062Z,18.00
2018-02-20T00:12:20.307Z,17.02
2018-02-20T00:13:09.350Z,15.68
2018-02-20T00:13:58.384Z,18.87
2018-02-20T00:14:47.523Z,19.60
2018-02-20T00:15:36.815Z,20.00
2018-02-20T00:16:25.876Z,18.73
2018-02-20T00:17:14.913Z,17.33
2018-02-20T00:18:03.963Z,17.40
2018-02-20T00:18:53.003Z,17.10
2018-02-20T00:19:42.060Z,17.40
2018-02-20T00:20:31.168Z,21.08
2018-02-20T00:21:20.205Z,20.98
2018-02-20T00:22:09.328Z,21.67
2018-02-20T00:23:04.243Z,20.80
2018-02-20T00:23:56.254Z,20.00
2018-02-20T00:24:45.305Z,20.05
2018-02-20T00:25:34.437Z,23.77
2018-02-20T00:26:23.483Z,23.45
2018-02-20T00:27:12.543Z,19.87
2018-02-20T00:28:01.585Z,19.92
2018-02-20T00:28:50.642Z,19.48
2018-02-20T00:29:39.692Z,17.10
2018-02-20T00:30:28.731Z,19.15
2018-02-20T00:31:18.678Z,17.98
2018-02-20T00:32:07.751Z,22.20
2018-02-20T00:32:56.800Z,18.17
2018-02-20T00:33:45.850Z,19.00
2018-02-20T00:34:34.909Z,14.87
2018-02-20T00:35:23.956Z,15.65
2018-02-20T00:36:13.001Z,17.33
2018-02-20T00:37:02.054Z,19.87
2018-02-20T00:37:51.166Z,17.67
2018-02-20T00:38:40.203Z,15.48
2018-02-20T00:39:29.248Z,18.55
2018-02-20T00:40:18.333Z,16.12
2018-02-20T00:41:07.395Z,16.90
2018-02-20T00:41:56.517Z,17.50
2018-02-20T00:42:45.569Z,16.55
2018-02-20T00:43:34.720Z,16.40
2018-02-20T00:44:23.770Z,17.73
2018-02-20T00:45:12.819Z,19.37
2018-02-20T00:46:01.875Z,20.83
2018-02-20T00:46:50.937Z,20.65
2018-02-20T00:47:39.981Z,24.30
2018-02-20T00:48:29.039Z,28.45
2018-02-20T00:49:18.117Z,25.02
2018-02-20T00:50:07.177Z,27.85
2018-02-20T00:50:56.234Z,27.77
2018-02-20T00:51:45.268Z,28.23
2018-02-20T00:52:34.315Z,32.08
2018-02-20T00:53:23.391Z,30.33
2018-02-20T00:54:12.441Z,25.30
2018-02-20T00:55:01.576Z,30.73
2018-02-20T00:55:50.627Z,30.60
2018-02-20T00:56:40.021Z,29.40
2018-02-20T00:57:29.058Z,26.00
2018-02-20T00:58:18.113Z,30.35
2018-02-20T00:59:07.180Z,34.28
2018-02-20T00:59:56.222Z,28.08
2018-02-20T01:00:45.726Z,26.40
2018-02-20T01:01:34.767Z,33.53
2018-02-20T01:02:23.806Z,27.45
2018-02-20T01:03:12.865Z,30.23
2018-02-20T01:04:01.917Z,31.80
2018-02-20T01:04:50.966Z,30.60
2018-02-20T01:05:39.998Z,31.73
2018-02-20T01:06:29.096Z,28.00
2018-02-20T01:07:18.153Z,28.55
2018-02-20T01:08:07.225Z,34.90
2018-02-20T01:08:56.342Z,31.20
2018-02-20T01:09:45.395Z,30.27
2018-02-20T01:10:34.438Z,28.05
2018-02-20T01:11:23.471Z,27.30
2018-02-20T01:12:12.527Z,30.33
2018-02-20T01:13:01.577Z,30.37
2018-02-20T01:13:50.633Z,29.55
2018-02-20T01:14:39.758Z,28.62
2018-02-20T01:15:28.799Z,28.35
2018-02-20T01:16:17.844Z,27.10
2018-02-20T01:17:06.873Z,28.42
2018-02-20T01:17:55.949Z,27.75
2018-02-20T01:18:45.016Z,30.58
2018-02-20T01:19:34.063Z,29.45
2018-02-20T01:20:23.154Z,27.25
2018-02-20T01:21:12.220Z,26.17
2018-02-20T01:22:01.288Z,26.45
2018-02-20T01:22:50.343Z,28.00
2018-02-20T01:23:39.394Z,26.37
2018-02-20T01:24:28.444Z,25.48
2018-02-20T01:25:17.501Z,25.20
2018-02-20T01:26:06.583Z,26.52
2018-02-20T01:26:55.619Z,29.02
2018-02-20T01:27:44.667Z,24.42
2018-02-20T01:28:33.724Z,28.77
2018-02-20T01:29:22.773Z,24.45
2018-02-20T01:30:11.850Z,26.50
2018-02-20T01:31:00.901Z,24.87
2018-02-20T01:31:50.337Z,23.33
2018-02-20T01:32:39.416Z,27.60
2018-02-20T01:33:28.460Z,22.85
2018-02-20T01:34:20.132Z,24.30
2018-02-20T01:35:09.186Z,24.80
2018-02-20T01:35:58.436Z,24.95
2018-02-20T01:36:47.484Z,27.95
2018-02-20T01:37:36.574Z,26.65
2018-02-20T01:38:25.628Z,29.40
2018-02-20T01:39:14.794Z,26.15
2018-02-20T01:40:03.832Z,26.92
2018-02-20T01:40:52.894Z,27.77
2018-02-20T01:41:41.939Z,33.22
2018-02-20T01:42:30.988Z,26.15
2018-02-20T01:43:20.040Z,28.12
2018-02-20T01:44:09.109Z,30.20
2018-02-20T01:44:58.199Z,32.45
2018-02-20T01:45:47.257Z,31.52
2018-02-20T01:46:36.309Z,32.42
2018-02-20T01:47:25.355Z,32.33
2018-02-20T01:48:14.405Z,27.67
2018-02-20T01:49:03.468Z,30.92
2018-02-20T01:49:52.535Z,27.17
2018-02-20T01:51:58.371Z,31.15
2018-02-20T01:52:47.476Z,30.88
2018-02-20T01:53:36.541Z,29.63
2018-02-20T01:54:25.590Z,30.15
2018-02-20T01:55:14.633Z,31.20
2018-02-20T01:56:03.715Z,32.78
2018-02-20T01:56:54.669Z,36.55
2018-02-20T01:57:44.078Z,36.33
2018-02-20T01:58:33.126Z,34.50
2018-02-20T01:59:22.177Z,35.58
2018-02-20T02:00:11.225Z,33.35
2018-02-20T02:01:00.285Z,40.05
2018-02-20T02:01:49.339Z,48.95
2018-02-20T02:02:38.468Z,43.90
2018-02-20T02:03:27.513Z,40.33
2018-02-20T02:04:16.575Z,32.70
2018-02-20T02:05:05.628Z,38.65
2018-02-20T02:05:54.663Z,46.72
2018-02-20T02:06:43.701Z,45.35
2018-02-20T02:07:32.753Z,52.00
2018-02-20T02:08:22.330Z,51.60
2018-02-20T02:09:11.404Z,62.72
2018-02-20T02:10:00.459Z,51.13
2018-02-20T02:10:49.509Z,77.32
2018-02-20T02:11:38.546Z,72.85
2018-02-20T02:12:27.596Z,64.40
2018-02-20T02:13:16.651Z,65.57
2018-02-20T02:14:05.767Z,46.63
2018-02-20T02:14:54.870Z,42.33
2018-02-20T02:15:43.928Z,50.33
2018-02-20T02:16:32.990Z,44.03
2018-02-20T02:17:22.058Z,45.20
2018-02-20T02:18:11.105Z,42.03
2018-02-20T02:19:00.171Z,45.55
2018-02-20T02:19:49.334Z,40.90
2018-02-20T02:20:38.394Z,42.85
2018-02-20T02:21:27.485Z,32.83
2018-02-20T02:22:16.557Z,24.70
2018-02-20T02:23:05.613Z,31.42
2018-02-20T02:23:54.662Z,25.17
2018-02-20T02:24:43.728Z,30.37
2018-02-20T02:25:32.883Z,25.33
2018-02-20T02:26:21.933Z,21.20
2018-02-20T02:27:10.976Z,17.83
2018-02-20T02:28:00.032Z,18.80
2018-02-20T02:28:49.083Z,22.08
2018-02-20T02:29:38.132Z,16.80
2018-02-20T02:30:27.369Z,19.45
2018-02-20T02:31:16.471Z,57.80
2018-02-20T02:32:05.548Z,33.15
2018-02-20T02:32:54.639Z,27.37
2018-02-20T02:33:43.671Z,30.73
2018-02-20T02:34:32.731Z,23.65
2018-02-20T02:35:21.821Z,28.08
2018-02-20T02:36:10.856Z,29.30
2018-02-20T02:36:59.935Z,21.77
2018-02-20T02:37:48.975Z,24.37
2018-02-20T02:38:38.040Z,19.87
2018-02-20T02:39:27.083Z,23.40
2018-02-20T02:40:16.124Z,19.15
2018-02-20T02:41:05.177Z,17.73
2018-02-20T02:41:54.240Z,23.38
2018-02-20T02:42:46.737Z,20.58
2018-02-20T02:43:35.793Z,21.77
2018-02-20T02:44:24.842Z,21.50
2018-02-20T02:45:13.880Z,18.55
2018-02-20T02:46:02.923Z,17.62
2018-02-20T02:46:51.986Z,18.83
2018-02-20T02:47:41.023Z,20.92
2018-02-20T02:48:30.119Z,20.90
2018-02-20T02:49:19.168Z,21.80
2018-02-20T02:50:08.281Z,21.05
2018-02-20T02:50:57.373Z,18.10
2018-02-20T02:51:46.430Z,22.45
2018-02-20T02:52:35.480Z,23.83
2018-02-20T02:53:24.537Z,20.45
2018-02-20T02:54:13.600Z,18.35
2018-02-20T02:55:02.653Z,21.50
2018-02-20T02:55:51.702Z,24.17
2018-02-20T02:56:40.791Z,23.48
2018-02-20T02:57:29.857Z,22.65
2018-02-20T02:58:18.912Z,23.65
2018-02-20T02:59:07.963Z,24.52
2018-02-20T02:59:57.131Z,21.95
2018-02-20T03:00:46.175Z,25.35
2018-02-20T03:01:35.239Z,23.98
2018-02-20T03:02:24.288Z,22.85
2018-02-20T03:03:13.341Z,23.02
2018-02-20T03:04:02.390Z,26.60
2018-02-20T03:04:51.440Z,22.73
2018-02-20T03:05:40.544Z,25.45
2018-02-20T03:06:29.592Z,25.20
2018-02-20T03:07:18.656Z,27.73
2018-02-20T03:08:07.772Z,25.50
2018-02-20T03:08:56.819Z,23.92
2018-02-20T03:09:45.872Z,23.60
2018-02-20T03:10:34.925Z,25.35
2018-02-20T03:11:24.014Z,21.15
2018-02-20T03:12:13.074Z,20.27
2018-02-20T03:13:02.137Z,19.00
2018-02-20T03:13:51.202Z,17.85
2018-02-20T03:14:40.253Z,24.70
2018-02-20T03:15:29.543Z,25.30
2018-02-20T03:16:18.578Z,25.95
2018-02-20T03:17:07.761Z,27.25
2018-02-20T03:17:56.809Z,23.85
2018-02-20T03:18:45.852Z,25.75
2018-02-20T03:19:34.942Z,28.12
2018-02-20T03:20:23.978Z,23.40
2018-02-20T03:21:13.023Z,23.65
2018-02-20T03:22:02.086Z,27.83
2018-02-20T03:22:51.413Z,26.95
2018-02-20T03:23:40.502Z,25.80
2018-02-20T03:24:29.543Z,29.70
2018-02-20T03:25:21.830Z,27.30
2018-02-20T03:26:10.875Z,26.75
2018-02-20T03:26:59.942Z,27.98
2018-02-20T03:27:48.994Z,28.90
2018-02-20T03:28:38.030Z,29.85
2018-02-20T03:29:27.109Z,31.30
2018-02-20T03:30:16.150Z,30.83
2018-02-20T03:31:05.206Z,26.83
2018-02-20T03:31:54.242Z,29.65
2018-02-20T03:32:43.282Z,28.48
2018-02-20T03:33:32.337Z,32.05
2018-02-20T03:34:21.377Z,27.80
2018-02-20T03:35:10.479Z,25.73
2018-02-20T03:35:59.584Z,27.70
2018-02-20T03:36:48.652Z,29.05
2018-02-20T03:37:37.823Z,29.55
2018-02-20T03:38:26.893Z,22.98
2018-02-20T03:39:15.945Z,29.30
2018-02-20T03:40:04.983Z,24.98
2018-02-20T03:40:54.033Z,48.58
2018-02-20T03:41:43.084Z,57.08
2018-02-20T03:42:32.119Z,41.83
2018-02-20T03:43:21.554Z,50.75
2018-02-20T03:44:10.602Z,43.83
2018-02-20T03:44:59.654Z,35.05
2018-02-20T03:45:48.702Z,37.33
2018-02-20T03:46:37.731Z,35.22
2018-02-20T03:47:26.825Z,31.95
2018-02-20T03:48:15.885Z,35.53
2018-02-20T03:49:04.951Z,33.83
2018-02-20T03:49:56.375Z,35.78
2018-02-20T03:50:45.411Z,32.63
2018-02-20T03:51:34.467Z,30.95
2018-02-20T03:52:23.510Z,34.78
2018-02-20T03:53:12.651Z,28.38
2018-02-20T03:54:01.708Z,33.38
2018-02-20T03:54:50.749Z,33.55
2018-02-20T03:55:39.799Z,32.78
2018-02-20T03:56:28.877Z,36.63
2018-02-20T03:57:17.930Z,26.52
2018-02-20T03:58:07.180Z,31.27
2018-02-20T03:58:56.771Z,30.17
2018-02-20T03:59:45.822Z,31.00
2018-02-20T04:00:34.939Z,26.00
2018-02-20T04:01:24.050Z,30.20
2018-02-20T04:02:13.150Z,26.67
2018-02-20T04:03:02.214Z,25.55
2018-02-20T04:03:51.251Z,24.27
2018-02-20T04:04:40.306Z,23.83
2018-02-20T04:05:29.356Z,19.00
2018-02-20T04:07:34.699Z,21.70
2018-02-20T04:08:24.136Z,19.15
2018-02-20T04:09:13.201Z,23.00
2018-02-20T04:10:02.237Z,20.48
2018-02-20T04:10:51.286Z,23.95
2018-02-20T04:11:40.318Z,25.73
2018-02-20T04:12:29.440Z,21.48
2018-02-20T04:13:18.496Z,22.83
2018-02-20T04:14:07.543Z,25.10
2018-02-20T04:14:56.591Z,36.00
2018-02-20T04:15:45.852Z,37.58
2018-02-20T04:16:34.891Z,28.87
2018-02-20T04:17:23.986Z,31.27
2018-02-20T04:18:13.026Z,32.45
2018-02-20T04:19:02.167Z,33.28
2018-02-20T04:19:51.215Z,34.17
2018-02-20T04:20:40.277Z,29.98
2018-02-20T04:21:29.318Z,23.25
2018-02-20T04:22:18.362Z,26.70
2018-02-20T04:23:07.411Z,22.92
2018-02-20T04:23:56.469Z,24.42
2018-02-20T04:24:45.556Z,22.20
2018-02-20T04:25:40.866Z,20.73
2018-02-20T04:26:29.929Z,19.12
2018-02-20T04:27:18.977Z,22.20
2018-02-20T04:28:08.062Z,18.65
2018-02-20T04:28:57.107Z,20.52
2018-02-20T04:29:46.151Z,23.00
2018-02-20T04:30:35.193Z,25.30
2018-02-20T04:31:24.466Z,29.48
2018-02-20T04:32:13.498Z,25.48
2018-02-20T04:33:02.535Z,25.23
2018-02-20T04:33:51.804Z,27.48
2018-02-20T04:34:40.855Z,24.58
2018-02-20T04:35:29.906Z,23.05
2018-02-20T04:36:18.942Z,26.60
2018-02-20T04:37:07.988Z,24.10
2018-02-20T04:37:57.056Z,19.20
2018-02-20T04:38:46.220Z,42.60
2018-02-20T04:39:35.258Z,27.33
2018-02-20T04:40:24.313Z,31.92
2018-02-20T04:41:13.388Z,25.75
2018-02-20T04:42:02.423Z,23.33
2018-02-20T04:42:51.485Z,19.87
2018-02-20T04:43:40.537Z,22.33
2018-02-20T04:44:29.668Z,20.75
2018-02-20T04:45:18.703Z,25.67
2018-02-20T04:46:07.738Z,24.92
2018-02-20T04:46:56.780Z,26.02
2018-02-20T04:47:45.833Z,24.98
2018-02-20T04:48:34.875Z,27.35
2018-02-20T04:49:23.922Z,27.17
2018-02-20T04:50:13.046Z,30.77
2018-02-20T04:51:02.107Z,30.15
2018-02-20T04:51:51.168Z,34.13
2018-02-20T04:52:40.206Z,32.30
2018-02-20T04:53:29.349Z,30.73
2018-02-20T04:54:18.404Z,25.35
2018-02-20T04:55:07.453Z,143.55
2018-02-20T04:55:56.651Z,63.53
2018-02-20T04:56:45.691Z,82.15
2018-02-20T04:57:34.734Z,110.30
2018-02-20T04:58:23.786Z,42.42
2018-02-20T04:59:12.845Z,34.17
2018-02-20T05:00:01.905Z,34.38
2018-02-20T05:00:50.970Z,47.60
2018-02-20T05:01:40.076Z,42.75
2018-02-20T05:02:29.131Z,36.45
2018-02-20T05:03:18.195Z,33.60
2018-02-20T05:04:07.247Z,27.80
2018-02-20T05:04:56.303Z,35.28
2018-02-20T05:05:45.347Z,31.10
2018-02-20T05:06:34.397Z,36.90
2018-02-20T05:07:23.506Z,40.22
2018-02-20T05:08:12.572Z,32.17
2018-02-20T05:09:01.628Z,27.77
2018-02-20T05:09:50.719Z,30.70
2018-02-20T05:10:39.764Z,56.22
2018-02-20T05:11:28.800Z,86.05
2018-02-20T05:12:17.861Z,58.17
2018-02-20T05:13:07.378Z,71.22
2018-02-20T05:13:56.432Z,73.50
2018-02-20T05:14:45.509Z,106.25
2018-02-20T05:15:34.572Z,70.80
2018-02-20T05:16:23.642Z,65.40
2018-02-20T05:17:12.689Z,64.85
2018-02-20T05:18:01.736Z,55.22
2018-02-20T05:18:50.926Z,63.75
2018-02-20T05:19:39.979Z,69.65
2018-02-20T05:20:29.042Z,62.72
2018-02-20T05:21:18.384Z,64.62
2018-02-20T05:22:07.508Z,57.03
2018-02-20T05:22:56.610Z,62.30
2018-02-20T05:23:45.652Z,64.60
2018-02-20T05:24:34.776Z,65.97
2018-02-20T05:25:23.809Z,60.88
2018-02-20T05:26:12.866Z,66.68
2018-02-20T05:27:01.931Z,62.62
2018-02-20T05:27:50.985Z,59.05
2018-02-20T05:28:40.051Z,64.62
2018-02-20T05:29:29.116Z,61.92
2018-02-20T05:30:18.204Z,68.72
2018-02-20T05:31:07.280Z,59.17
2018-02-20T05:31:56.319Z,62.13
2018-02-20T05:32:46.414Z,42.67
2018-02-20T05:33:35.451Z,43.25
2018-02-20T05:34:24.509Z,42.35
2018-02-20T05:35:13.560Z,46.95
2018-02-20T05:36:02.895Z,46.40
2018-02-20T05:36:51.969Z,43.72
2018-02-20T05:37:41.024Z,44.88
2018-02-20T05:38:30.111Z,42.40
2018-02-20T05:39:19.149Z,38.97
2018-02-20T05:40:08.257Z,38.97
2018-02-20T05:40:57.299Z,28.90
2018-02-20T05:41:46.348Z,38.17
2018-02-20T05:42:36.282Z,44.13
2018-02-20T05:43:25.324Z,49.85
2018-02-20T05:44:14.369Z,38.65
2018-02-20T05:45:03.409Z,42.95
2018-02-20T05:45:52.451Z,36.70
2018-02-20T05:46:41.536Z,40.50
2018-02-20T05:47:30.577Z,38.03
2018-02-20T05:48:19.701Z,51.50
2018-02-20T05:49:08.743Z,56.92
2018-02-20T05:49:57.845Z,49.75
2018-02-20T05:50:46.898Z,45.17
2018-02-20T05:51:35.944Z,40.95
2018-02-20T05:52:25.020Z,38.47
2018-02-20T05:53:14.083Z,41.88
2018-02-20T05:54:03.647Z,62.28
2018-02-20T05:54:52.688Z,52.15
2018-02-20T05:55:41.764Z,53.45
2018-02-20T05:56:30.809Z,57.53
2018-02-20T05:57:19.862Z,53.20
2018-02-20T05:58:08.956Z,56.85
2018-02-20T05:58:58.036Z,71.87
2018-02-20T05:59:47.095Z,70.80
2018-02-20T06:00:37.884Z,61.00
2018-02-20T06:01:27.060Z,55.90
2018-02-20T06:02:16.124Z,47.33
2018-02-20T06:03:05.241Z,66.80
2018-02-20T06:03:54.289Z,64.10
2018-02-20T06:04:43.344Z,64.75
2018-02-20T06:05:32.400Z,66.62
2018-02-20T06:06:21.457Z,87.62
2018-02-20T06:07:10.606Z,106.37
2018-02-20T06:07:59.675Z,107.68
2018-02-20T06:08:48.753Z,104.97
2018-02-20T06:09:37.834Z,109.87
2018-02-20T06:10:26.908Z,102.40
2018-02-20T06:11:15.966Z,96.20
2018-02-20T06:12:05.014Z,93.37
2018-02-20T06:12:54.120Z,81.47
2018-02-20T06:13:43.176Z,80.30
2018-02-20T06:14:32.213Z,83.85
2018-02-20T06:15:21.263Z,60.15
2018-02-20T06:16:10.376Z,57.42
2018-02-20T06:16:59.424Z,56.58
2018-02-20T06:17:48.471Z,68.43
2018-02-20T06:18:38.009Z,62.00
2018-02-20T06:19:27.107Z,69.85
2018-02-20T06:20:16.192Z,75.22
2018-02-20T06:21:06.119Z,72.53
2018-02-20T06:21:55.181Z,71.82
2018-02-20T06:22:44.238Z,65.30
2018-02-20T06:23:33.285Z,57.70
2018-02-20T18:58:49.734Z,42.47
2018-02-20T18:59:39.582Z,44.53
2018-02-20T19:00:28.657Z,41.15
2018-02-20T19:01:17.712Z,42.92
2018-02-20T19:02:06.777Z,51.35
2018-02-20T19:02:55.950Z,35.08
2018-02-20T19:03:45.011Z,140.07
2018-02-20T19:04:34.637Z,138.30
2018-02-20T19:05:23.693Z,106.63
2018-02-20T19:06:12.761Z,137.27
2018-02-20T19:07:01.842Z,58.47
2018-02-20T19:07:51.081Z,52.13
2018-02-20T19:08:40.166Z,95.12
2018-02-20T19:09:29.222Z,66.72
2018-02-20T19:10:18.392Z,45.65
2018-02-20T19:11:07.496Z,43.87
2018-02-20T19:11:56.590Z,34.17
2018-02-20T19:12:45.630Z,41.15
2018-02-20T19:13:34.694Z,42.45
2018-02-20T19:14:23.772Z,53.42
2018-02-20T19:15:12.870Z,32.75
2018-02-20T19:16:01.956Z,34.70
2018-02-20T19:16:51.026Z,30.23
2018-02-20T19:17:45.409Z,33.80
2018-02-20T19:18:34.513Z,29.87
2018-02-20T19:19:23.642Z,28.02
2018-02-20T19:20:13.446Z,25.40
2018-02-20T19:21:02.606Z,30.00
2018-02-20T19:21:51.694Z,28.02
2018-02-20T19:22:40.753Z,26.83
2018-02-20T19:23:29.804Z,23.10
2018-02-20T19:24:18.848Z,26.05
2018-02-20T19:25:07.900Z,32.33
2018-02-20T19:25:56.951Z,29.15
2018-02-20T19:26:46.038Z,29.55
2018-02-20T19:27:35.171Z,31.77
2018-02-20T19:28:24.230Z,26.80
2018-02-20T19:29:13.289Z,25.67
2018-02-20T19:30:02.357Z,24.98
2018-02-20T19:30:51.436Z,22.37
2018-02-20T19:31:40.511Z,22.33
2018-02-20T19:32:29.629Z,23.38
2018-02-20T19:33:18.800Z,21.98
2018-02-20T19:34:07.881Z,21.23
2018-02-20T19:34:56.950Z,22.42
2018-02-20T19:35:46.070Z,29.42
2018-02-20T19:36:35.164Z,26.77
2018-02-20T19:37:24.229Z,23.73
2018-02-20T19:38:13.318Z,21.98
2018-02-20T19:39:02.469Z,20.83
2018-02-20T19:39:51.536Z,26.50
2018-02-20T19:40:40.630Z,26.25
2018-02-20T19:41:29.721Z,34.63
2018-02-20T19:42:18.767Z,26.98
2018-02-20T19:43:07.845Z,20.98
2018-02-20T19:43:56.890Z,24.48
2018-02-20T19:44:46.426Z,29.95
2018-02-20T19:45:35.501Z,28.15
2018-02-20T19:46:24.580Z,27.17
2018-02-20T19:47:13.664Z,26.80
2018-02-20T19:48:02.955Z,25.60
2018-02-20T19:48:52.065Z,27.27
2018-02-20T19:49:41.132Z,24.33
2018-02-20T19:50:30.186Z,26.27
2018-02-20T19:51:19.238Z,32.00
2018-02-20T19:52:08.310Z,28.58
2018-02-20T19:52:57.444Z,26.20
2018-02-20T19:53:46.500Z,20.70
2018-02-20T19:54:35.553Z,18.45
2018-02-20T19:55:24.612Z,22.02
2018-02-20T19:56:13.730Z,22.08
2018-02-20T19:57:02.805Z,22.87
2018-02-20T19:57:52.011Z,25.80
2018-02-20T19:58:41.300Z,26.05
2018-02-20T19:59:30.463Z,24.87
2018-02-20T20:00:19.564Z,24.98
2018-02-20T20:01:08.690Z,27.80
2018-02-20T20:01:57.788Z,25.80
2018-02-20T20:02:46.945Z,28.52
2018-02-20T20:03:36.062Z,27.75
2018-02-20T20:04:25.334Z,35.95
2018-02-20T20:05:14.453Z,30.27
2018-02-20T20:06:03.808Z,24.73
2018-02-20T20:06:52.976Z,28.00
2018-02-20T20:07:42.046Z,32.42
2018-02-20T20:08:31.089Z,28.65
2018-02-20T20:09:20.707Z,31.42
2018-02-20T20:10:09.979Z,49.20
2018-02-20T20:10:59.031Z,295.63
2018-02-20T20:11:48.107Z,156.40
2018-02-20T20:12:37.186Z,129.27
2018-02-20T20:13:26.249Z,74.80
2018-02-20T20:14:15.345Z,52.03
2018-02-20T20:15:04.379Z,54.53
2018-02-20T20:15:53.487Z,51.40
2018-02-20T20:16:42.529Z,43.45
2018-02-20T20:17:31.589Z,43.75
2018-02-20T20:18:20.640Z,41.17
2018-02-20T20:19:09.777Z,38.15
2018-02-20T20:19:58.834Z,48.95
2018-02-20T20:20:48.236Z,49.30
2018-02-20T20:21:37.887Z,55.12
2018-02-20T20:22:26.943Z,55.17
2018-02-20T20:23:16.130Z,59.85
2018-02-20T20:24:05.285Z,59.00
2018-02-20T20:24:54.515Z,54.17
2018-02-20T20:25:43.607Z,48.80
2018-02-20T20:26:32.740Z,36.25
2018-02-20T20:27:21.928Z,25.98
2018-02-20T20:28:11.109Z,26.08
2018-02-20T20:29:00.483Z,30.70
2018-02-20T20:29:49.838Z,20.12
2018-02-20T20:30:39.050Z,23.40
2018-02-20T20:31:28.324Z,17.60
2018-02-20T20:32:17.403Z,20.23
2018-02-20T20:33:06.968Z,19.70
2018-02-20T20:33:56.141Z,18.02
2018-02-20T20:34:45.220Z,18.60
2018-02-20T20:35:34.306Z,16.62
2018-02-20T20:36:23.364Z,19.17
2018-02-20T20:37:12.787Z,26.17
2018-02-20T20:38:02.262Z,25.42
2018-02-20T20:38:51.590Z,25.45
2018-02-20T20:39:40.643Z,33.05
2018-02-20T20:40:29.778Z,26.42
2018-02-20T20:41:18.845Z,32.08
2018-02-20T20:42:07.912Z,25.67
2018-02-20T20:42:56.958Z,28.12
2018-02-20T20:43:46.199Z,30.92
2018-02-20T20:44:35.400Z,25.00
2018-02-20T20:45:24.508Z,30.00
2018-02-20T20:46:13.891Z,26.52
2018-02-20T20:47:03.386Z,17.77
2018-02-20T20:47:52.545Z,11.95
2018-02-20T20:48:41.677Z,13.25
2018-02-20T20:49:30.740Z,13.95
2018-02-20T20:50:19.953Z,12.13
2018-02-20T20:51:09.127Z,11.65
2018-02-20T20:51:58.222Z,10.88
2018-02-20T20:52:47.272Z,7.10
2018-02-20T20:53:36.348Z,9.65
2018-02-20T20:54:25.399Z,9.35
2018-02-20T20:55:14.515Z,14.85
2018-02-20T20:56:03.663Z,18.05
2018-02-20T20:56:52.746Z,20.37
2018-02-20T20:57:42.416Z,19.75
2018-02-20T20:58:32.329Z,22.02
2018-02-20T20:59:21.936Z,23.80
2018-02-20T21:00:11.196Z,26.92
2018-02-20T21:01:00.244Z,37.20
2018-02-20T21:01:49.533Z,32.50
2018-02-20T21:02:38.654Z,30.58
2018-02-20T21:03:27.731Z,30.90
2018-02-20T21:04:16.787Z,38.45
2018-02-20T21:05:05.837Z,31.55
2018-02-20T21:05:54.904Z,31.50
2018-02-20T21:06:43.969Z,27.87
2018-02-20T21:07:33.055Z,33.40
2018-02-20T21:08:22.197Z,32.40
2018-02-20T21:09:11.637Z,34.20
2018-02-20T21:10:00.794Z,36.47
2018-02-20T21:10:50.670Z,33.30
2018-02-20T21:11:39.945Z,32.25
2018-02-20T21:12:29.046Z,35.55
2018-02-20T21:13:18.135Z,33.67
2018-02-20T21:14:07.304Z,32.78
2018-02-20T21:14:56.367Z,29.42
2018-02-20T21:15:45.464Z,24.77
2018-02-20T21:16:34.538Z,23.92
2018-02-20T21:17:23.676Z,25.90
2018-02-20T21:18:12.748Z,24.25
2018-02-20T21:19:01.817Z,21.85
2018-02-20T21:19:50.988Z,21.83
2018-02-20T21:20:40.236Z,22.35
2018-02-20T21:21:29.302Z,20.90
2018-02-20T21:22:18.534Z,20.98
2018-02-20T21:23:07.583Z,22.00
2018-02-20T21:23:56.646Z,18.17
2018-02-20T21:24:45.694Z,24.27
2018-02-20T21:25:34.817Z,19.58
2018-02-20T21:26:23.887Z,31.52
2018-02-20T21:27:13.021Z,33.13
2018-02-20T21:28:02.131Z,30.05
2018-02-20T21:28:51.205Z,28.70
2018-02-20T21:29:40.287Z,25.50
2018-02-20T21:30:29.388Z,27.58
2018-02-20T21:31:18.912Z,25.60
2018-02-20T21:32:07.981Z,24.27
2018-02-20T21:32:57.054Z,23.85
2018-02-20T21:33:46.128Z,20.58
2018-02-20T21:34:35.232Z,24.30
2018-02-20T21:35:24.367Z,20.23
2018-02-20T21:36:13.408Z,21.92
2018-02-20T21:37:02.447Z,22.17
2018-02-20T21:37:51.496Z,21.17
2018-02-20T21:38:40.591Z,13.57
2018-02-20T21:39:29.636Z,11.27
2018-02-20T21:40:18.742Z,10.18
2018-02-20T21:41:07.790Z,15.07
2018-02-20T21:41:56.843Z,16.77
2018-02-20T21:42:45.910Z,17.17
2018-02-20T21:43:35.091Z,20.23
2018-02-20T21:44:24.137Z,14.57
2018-02-20T21:45:13.344Z,13.98
2018-02-20T21:46:02.393Z,14.63
2018-02-20T21:46:51.449Z,16.62
2018-02-20T21:47:40.510Z,15.73
2018-02-20T21:48:29.579Z,14.43
2018-02-20T21:49:18.642Z,20.35
2018-02-20T21:50:07.674Z,22.58
2018-02-20T21:50:56.939Z,27.92
2018-02-20T21:51:46.011Z,19.15
2018-02-20T21:52:35.082Z,20.15
2018-02-20T21:53:24.140Z,19.35
2018-02-20T21:54:13.179Z,21.90
2018-02-20T21:55:02.256Z,24.45
2018-02-20T21:55:51.303Z,28.45
2018-02-20T21:56:40.405Z,28.12
2018-02-20T21:57:29.459Z,27.95
2018-02-20T21:58:18.498Z,28.15
2018-02-20T21:59:07.542Z,25.42
2018-02-20T21:59:56.592Z,23.85
2018-02-20T22:00:45.627Z,21.98
2018-02-20T22:01:34.701Z,21.60
2018-02-20T22:02:23.844Z,22.67
2018-02-20T22:03:12.897Z,31.27
2018-02-20T22:04:01.956Z,21.65
2018-02-20T22:04:51.005Z,20.60
2018-02-20T22:05:40.064Z,19.12
2018-02-20T22:06:29.109Z,22.67
2018-02-20T22:07:18.164Z,20.08
2018-02-20T22:08:07.640Z,26.17
2018-02-20T22:08:56.692Z,22.92
2018-02-20T22:09:45.752Z,22.27
2018-02-20T22:10:34.803Z,24.98
2018-02-20T22:11:23.868Z,26.87
2018-02-20T22:12:12.919Z,28.35
2018-02-20T22:13:01.966Z,31.75
2018-02-20T22:13:51.058Z,31.67
2018-02-20T22:14:40.122Z,29.95
2018-02-20T22:15:29.198Z,34.95
2018-02-20T22:16:18.297Z,32.45
2018-02-20T22:17:07.454Z,35.97
2018-02-20T22:17:56.519Z,35.00
2018-02-20T22:18:45.599Z,37.47
2018-02-20T22:19:34.750Z,34.10
2018-02-20T22:20:23.797Z,39.70
2018-02-20T22:21:12.832Z,40.95
2018-02-20T22:22:01.883Z,48.33
2018-02-20T22:22:50.940Z,48.30
2018-02-20T22:23:39.978Z,53.60
2018-02-20T22:24:29.033Z,57.33
2018-02-20T22:25:18.320Z,61.78
2018-02-20T22:26:07.369Z,59.28
2018-02-20T22:26:56.420Z,92.00
2018-02-20T22:27:45.494Z,99.35
2018-02-20T22:28:34.549Z,121.47
2018-02-20T22:29:23.593Z,110.70
2018-02-20T22:30:12.700Z,84.40
2018-02-20T22:31:01.788Z,96.53
2018-02-20T22:31:50.836Z,86.65
2018-02-20T22:32:39.885Z,96.50
2018-02-20T22:33:28.972Z,113.70
2018-02-20T22:34:18.049Z,107.50
2018-02-20T22:35:07.092Z,95.25
2018-02-20T22:35:56.775Z,80.70
2018-02-20T22:36:45.833Z,52.30
2018-02-20T22:37:34.869Z,32.85
2018-02-20T22:38:23.907Z,59.10
2018-02-20T22:39:13.088Z,31.00
2018-02-20T22:40:02.138Z,33.17
2018-02-20T22:40:51.202Z,39.33
2018-02-20T22:41:40.256Z,29.73
2018-02-20T22:42:29.324Z,25.02
2018-02-20T22:43:18.386Z,29.25
2018-02-20T22:44:07.433Z,34.28
2018-02-20T22:44:56.511Z,51.28
2018-02-20T22:45:45.545Z,46.45
2018-02-20T22:46:34.590Z,63.63
2018-02-20T22:47:23.641Z,69.15
2018-02-20T22:48:12.683Z,62.72
2018-02-20T22:49:01.728Z,66.07
2018-02-20T22:49:50.790Z,59.60
2018-02-20T22:50:39.868Z,63.40
2018-02-20T22:51:28.917Z,64.90
2018-02-20T22:52:17.962Z,61.53
2018-02-20T22:53:07.007Z,62.58
2018-02-20T22:53:56.076Z,61.17
2018-02-20T22:54:45.126Z,57.75
2018-02-20T22:55:34.162Z,67.30
2018-02-20T22:56:23.311Z,57.85
2018-02-20T22:57:12.379Z,65.07
2018-02-20T22:58:01.445Z,58.87
2018-02-20T22:58:50.490Z,62.45
2018-02-20T22:59:39.553Z,58.25
2018-02-20T23:00:28.895Z,58.05
2018-02-20T23:01:17.946Z,56.50
2018-02-20T23:02:07.224Z,52.50
2018-02-20T23:02:57.366Z,55.67
2018-02-20T23:03:46.441Z,69.03
2018-02-20T23:04:35.496Z,61.55
2018-02-20T23:05:24.539Z,55.95
2018-02-20T23:06:13.600Z,57.97
2018-02-20T23:07:02.639Z,63.60
2018-02-20T23:07:51.688Z,57.05
2018-02-20T23:08:40.815Z,61.35
2018-02-20T23:09:29.891Z,58.35